Time;durP1;ratioP1;P1;durP2;ratioP2;P2;SDS_P1;SDS_P2;PMS_P1;PMS_P2;Temp;Humidity;BMP_temperature;BMP_pressure;BME280_temperature;BME280_humidity;BME280_pressure;Samples;Min_cycle;Max_cycle;Signal;HPM_P1;HPM_P2
2021/12/01 00:01:42;;;;;;;7.13;2.13;;;10.60;85.70;;;;;;4944446;28;20536;-93
2021/12/01 00:04:08;;;;;;;2.00;1.42;;;10.80;85.60;;;;;;4960015;28;20031;-93
2021/12/01 00:06:35;;;;;;;2.75;1.40;;;10.70;85.70;;;;;;4955442;28;20102;-91
2021/12/01 00:09:03;;;;;;;3.05;2.03;;;10.70;85.70;;;;;;4973378;28;20038;-93
2021/12/01 00:11:29;;;;;;;2.40;1.50;;;10.70;86.20;;;;;;4939027;28;20058;-93
2021/12/01 00:13:54;;;;;;;4.38;1.58;;;10.70;85.60;;;;;;4946260;28;20071;-92
2021/12/01 00:16:20;;;;;;;2.53;1.60;;;11.00;85.80;;;;;;4944320;28;20066;-93
2021/12/01 00:18:46;;;;;;;3.72;2.38;;;10.80;85.60;;;;;;4953458;28;20036;-93
2021/12/01 00:21:12;;;;;;;3.22;1.08;;;10.70;85.40;;;;;;4967670;28;20038;-93
2021/12/01 00:23:38;;;;;;;4.65;2.65;;;10.80;85.60;;;;;;4945839;28;20065;-92
2021/12/01 00:26:05;;;;;;;2.90;1.50;;;10.80;85.70;;;;;;4952863;28;20046;-90
2021/12/01 00:28:31;;;;;;;4.72;2.20;;;10.70;85.60;;;;;;4967976;28;20042;-92
2021/12/01 00:30:58;;;;;;;5.05;2.05;;;10.70;85.50;;;;;;4949290;28;20034;-94
2021/12/01 00:33:24;;;;;;;3.10;1.70;;;11.20;85.90;;;;;;4965503;28;20043;-92
2021/12/01 00:35:55;;;;;;;7.10;1.75;;;10.90;85.70;;;;;;4951517;28;20046;-91
2021/12/01 00:38:23;;;;;;;2.50;1.40;;;10.70;85.50;;;;;;4951254;28;20090;-91
2021/12/01 00:40:50;;;;;;;5.32;1.90;;;10.80;85.50;;;;;;4949818;28;20031;-89
2021/12/01 00:43:17;;;;;;;2.55;1.42;;;10.80;85.40;;;;;;4985816;28;20054;-91
2021/12/01 00:46:08;;;;;;;2.72;1.27;;;10.80;85.40;;;;;;4961821;28;20049;-92
2021/12/01 00:48:33;;;;;;;5.65;1.70;;;10.80;85.40;;;;;;4965653;28;20043;-92
2021/12/01 00:50:59;;;;;;;7.72;2.17;;;10.80;85.30;;;;;;4961106;28;20031;-93
2021/12/01 00:53:25;;;;;;;2.47;1.48;;;10.80;85.30;;;;;;4940470;28;20072;-92
2021/12/01 00:55:51;;;;;;;4.47;1.73;;;10.80;85.20;;;;;;4944408;28;20038;-93
2021/12/01 00:58:17;;;;;;;6.32;1.75;;;10.90;85.20;;;;;;4946800;28;20516;-93
2021/12/01 01:00:43;;;;;;;4.30;1.92;;;11.20;85.30;;;;;;4948575;28;20031;-93
2021/12/01 01:03:10;;;;;;;4.93;2.00;;;10.90;85.00;;;;;;4963354;28;20031;-90
2021/12/01 01:05:37;;;;;;;6.15;2.40;;;10.90;85.00;;;;;;4949499;28;20086;-93
2021/12/01 01:08:04;;;;;;;2.05;1.35;;;11.20;85.20;;;;;;4978737;28;20117;-93
2021/12/01 01:18:47;;;;;;;3.42;1.17;;;11.00;84.70;;;;;;4975449;28;20522;-94
2021/12/01 01:21:14;;;;;;;4.93;1.58;;;11.00;84.70;;;;;;4943180;28;20070;-92
2021/12/01 01:23:40;;;;;;;2.30;1.30;;;11.00;84.70;;;;;;4942489;28;20047;-92
2021/12/01 01:26:10;;;;;;;5.03;1.85;;;11.00;84.60;;;;;;4974701;28;20043;-89
2021/12/01 01:28:37;;;;;;;3.55;1.73;;;11.30;84.90;;;;;;4968039;28;20508;-89
2021/12/01 01:31:03;;;;;;;4.97;2.10;;;11.00;84.70;;;;;;4942571;28;20070;-93
2021/12/01 01:33:29;;;;;;;5.72;2.40;;;11.00;84.80;;;;;;4943710;28;20043;-93
2021/12/01 01:35:55;;;;;;;4.28;2.00;;;11.00;84.80;;;;;;4975433;28;20638;-91
2021/12/01 01:38:21;;;;;;;4.78;2.45;;;11.50;85.10;;;;;;4957087;28;20055;-93
2021/12/01 01:40:46;;;;;;;5.30;2.60;;;11.00;84.70;;;;;;4959975;28;20403;-91
2021/12/01 01:43:13;;;;;;;4.10;1.90;;;11.00;84.80;;;;;;4954966;28;20043;-93
2021/12/01 01:45:39;;;;;;;1.38;0.80;;;11.40;84.90;;;;;;4939507;28;20066;-89
2021/12/01 01:48:13;;;;;;;4.45;1.33;;;11.10;84.80;;;;;;4958725;28;20035;-92
2021/12/01 01:50:42;;;;;;;12.50;1.67;;;11.00;84.60;;;;;;4954875;28;20113;-92
2021/12/01 01:53:14;;;;;;;2.85;1.70;;;11.10;84.70;;;;;;4951279;28;20504;-91
2021/12/01 01:55:44;;;;;;;2.53;1.13;;;11.10;84.70;;;;;;4969802;28;20113;-92
2021/12/01 01:58:12;;;;;;;3.20;1.77;;;11.00;84.70;;;;;;4951279;28;20069;-93
2021/12/01 02:00:45;;;;;;;1.55;1.00;;;11.20;84.90;;;;;;4945071;28;20114;-90
2021/12/01 02:03:15;;;;;;;6.18;1.90;;;11.00;84.90;;;;;;4947171;28;20043;-89
2021/12/01 02:05:41;;;;;;;2.90;1.58;;;11.20;85.00;;;;;;4946015;28;20069;-93
2021/12/01 02:08:16;;;;;;;2.75;1.55;;;11.00;85.00;;;;;;4951103;28;20038;-92
2021/12/01 02:10:49;;;;;;;2.80;1.35;;;11.60;85.80;;;;;;4955571;28;20442;-89
2021/12/01 02:13:19;;;;;;;3.38;1.38;;;11.00;84.90;;;;;;4951903;28;20066;-92
2021/12/01 02:15:48;;;;;;;3.63;1.30;;;11.10;85.00;;;;;;4969530;28;20117;-92
2021/12/01 02:18:14;;;;;;;3.25;1.52;;;11.30;85.20;;;;;;4949725;28;20046;-93
2021/12/01 02:20:41;;;;;;;4.75;1.50;;;11.00;85.10;;;;;;4939482;28;20047;-91
2021/12/01 02:23:07;;;;;;;4.55;1.23;;;11.10;85.20;;;;;;4939520;28;20040;-92
2021/12/01 02:25:36;;;;;;;2.13;0.82;;;11.00;85.20;;;;;;4936620;28;20044;-92
2021/12/01 02:28:07;;;;;;;3.10;1.17;;;11.10;85.20;;;;;;4962407;28;20047;-92
2021/12/01 02:30:32;;;;;;;2.10;0.90;;;11.10;85.00;;;;;;4941883;28;20560;-89
2021/12/01 02:32:59;;;;;;;1.08;0.77;;;11.40;85.20;;;;;;4939008;28;20119;-90
2021/12/01 02:35:24;;;;;;;2.33;1.10;;;11.10;85.00;;;;;;4915618;28;20453;-92
2021/12/01 02:37:50;;;;;;;4.43;1.55;;;11.20;84.90;;;;;;4941253;28;20067;-93
2021/12/01 02:40:16;;;;;;;3.22;1.00;;;11.50;85.20;;;;;;4954313;28;20043;-92
2021/12/01 02:42:42;;;;;;;1.05;0.60;;;11.10;85.00;;;;;;4962467;28;20084;-93
2021/12/01 02:45:08;;;;;;;1.75;1.17;;;11.20;85.10;;;;;;4934132;28;20070;-93
2021/12/01 02:47:34;;;;;;;6.97;1.33;;;11.20;85.10;;;;;;4920297;28;20026;-92
2021/12/01 02:49:59;;;;;;;3.45;1.15;;;11.40;85.20;;;;;;4983763;28;20028;-90
2021/12/01 02:52:25;;;;;;;4.65;0.70;;;11.20;85.20;;;;;;4984057;28;20031;-92
2021/12/01 02:54:51;;;;;;;2.45;1.08;;;11.20;85.20;;;;;;4963375;28;20032;-92
2021/12/01 02:57:17;;;;;;;2.85;1.10;;;11.20;85.10;;;;;;4940598;28;20054;-92
2021/12/01 02:59:43;;;;;;;2.40;0.88;;;11.20;85.10;;;;;;4959010;28;20071;-93
2021/12/01 03:02:09;;;;;;;4.68;1.00;;;11.40;85.20;;;;;;4939288;28;20035;-93
2021/12/01 03:04:36;;;;;;;8.18;0.80;;;11.20;85.70;;;;;;4960212;28;20047;-91
2021/12/01 03:07:03;;;;;;;3.20;1.02;;;11.30;85.20;;;;;;4961382;28;20090;-90
2021/12/01 03:09:29;;;;;;;2.45;1.10;;;11.30;85.20;;;;;;4936217;28;20533;-92
2021/12/01 03:11:56;;;;;;;1.55;0.90;;;11.30;85.20;;;;;;4960782;28;20035;-93
2021/12/01 03:14:22;;;;;;;3.97;1.33;;;11.80;85.50;;;;;;4939078;28;20130;-92
2021/12/01 03:16:51;;;;;;;1.77;1.05;;;11.30;85.20;;;;;;4926059;28;20035;-89
2021/12/01 03:19:18;;;;;;;2.40;1.15;;;11.30;85.30;;;;;;4940714;28;20044;-93
2021/12/01 03:21:44;;;;;;;4.75;1.20;;;11.30;85.40;;;;;;4950811;28;20038;-92
2021/12/01 03:24:11;;;;;;;3.25;1.17;;;11.30;85.30;;;;;;4928044;28;20119;-93
2021/12/01 03:26:37;;;;;;;2.35;1.17;;;11.30;85.40;;;;;;4922889;29;20043;-93
2021/12/01 03:29:06;;;;;;;1.60;0.82;;;11.30;85.60;;;;;;4936823;29;20031;-90
2021/12/01 03:31:32;;;;;;;2.08;1.10;;;11.30;85.50;;;;;;4928067;28;20476;-90
2021/12/01 03:33:58;;;;;;;3.97;0.88;;;11.30;86.20;;;;;;4922179;29;20087;-92
2021/12/01 03:36:24;;;;;;;3.13;1.08;;;11.30;85.70;;;;;;4925485;28;20036;-93
2021/12/01 03:38:49;;;;;;;3.70;1.25;;;11.70;85.90;;;;;;4927762;28;20055;-93
2021/12/01 03:41:15;;;;;;;1.30;0.90;;;11.60;86.00;;;;;;4921889;28;20493;-90
2021/12/01 03:43:41;;;;;;;2.03;0.95;;;11.40;85.80;;;;;;4922289;28;20035;-92
2021/12/01 03:46:07;;;;;;;4.03;0.85;;;11.40;85.80;;;;;;4918193;29;20101;-93
2021/12/01 03:48:33;;;;;;;0.85;0.55;;;11.40;85.90;;;;;;4954729;28;20065;-90
2021/12/01 03:50:59;;;;;;;1.35;0.63;;;11.40;85.80;;;;;;4960127;28;20059;-90
2021/12/01 03:53:25;;;;;;;2.92;1.08;;;11.40;86.00;;;;;;4944056;28;20066;-92
2021/12/01 03:55:52;;;;;;;2.97;1.02;;;11.50;86.00;;;;;;4950414;28;20516;-93
2021/12/01 03:58:18;;;;;;;1.70;0.65;;;11.70;86.20;;;;;;4961614;28;20043;-90
2021/12/01 04:00:45;;;;;;;2.35;0.70;;;11.40;86.10;;;;;;4945205;28;20050;-93
2021/12/01 04:03:10;;;;;;;2.05;1.10;;;11.40;86.10;;;;;;4934723;28;20035;-90
2021/12/01 04:05:36;;;;;;;0.85;0.22;;;11.50;86.20;;;;;;4969742;28;20074;-92
2021/12/01 04:08:05;;;;;;;1.58;0.50;;;11.40;86.30;;;;;;4950527;28;20038;-92
2021/12/01 04:10:31;;;;;;;2.00;0.90;;;11.40;86.20;;;;;;4958578;28;20034;-92
2021/12/01 04:12:57;;;;;;;1.52;0.63;;;11.60;86.30;;;;;;4958325;28;20110;-93
2021/12/01 04:15:24;;;;;;;0.50;0.40;;;11.50;86.40;;;;;;4949236;28;20117;-92
2021/12/01 04:17:49;;;;;;;1.25;0.65;;;11.50;86.40;;;;;;4947480;28;20062;-92
2021/12/01 04:20:16;;;;;;;0.77;0.50;;;11.70;86.50;;;;;;4939555;28;20593;-91
2021/12/01 04:22:45;;;;;;;0.63;0.50;;;11.50;86.40;;;;;;4946370;28;20365;-90
2021/12/01 04:25:11;;;;;;;0.80;0.63;;;11.50;86.50;;;;;;4921709;28;20027;-90
2021/12/01 04:27:38;;;;;;;2.17;0.52;;;11.50;86.60;;;;;;4931582;28;20027;-93
2021/12/01 04:30:08;;;;;;;1.77;0.50;;;11.50;86.50;;;;;;4942276;28;20493;-92
2021/12/01 04:32:34;;;;;;;1.40;0.50;;;11.50;86.60;;;;;;4940817;28;20076;-90
2021/12/01 04:35:00;;;;;;;0.88;0.60;;;11.50;86.70;;;;;;4956929;28;20106;-93
2021/12/01 04:37:26;;;;;;;1.15;0.50;;;11.50;86.70;;;;;;4978099;28;20094;-94
2021/12/01 04:39:53;;;;;;;0.82;0.47;;;11.60;86.80;;;;;;4958616;28;20505;-93
2021/12/01 04:42:19;;;;;;;1.42;0.60;;;11.80;86.90;;;;;;4975214;28;20022;-94
2021/12/01 04:44:46;;;;;;;2.50;0.80;;;11.60;86.90;;;;;;4941066;28;20055;-93
2021/12/01 04:47:17;;;;;;;1.02;0.40;;;11.50;86.90;;;;;;4972725;28;20121;-90
2021/12/01 04:49:43;;;;;;;0.68;0.30;;;11.60;87.00;;;;;;4964393;28;20054;-92
2021/12/01 04:52:10;;;;;;;0.80;0.45;;;11.60;87.00;;;;;;4921964;28;20028;-92
2021/12/01 04:54:38;;;;;;;1.65;0.40;;;11.60;86.90;;;;;;4925956;28;20160;-93
2021/12/01 04:57:05;;;;;;;0.60;0.30;;;11.60;87.70;;;;;;4979821;28;20051;-91
2021/12/01 04:59:31;;;;;;;1.77;0.30;;;11.60;87.00;;;;;;4993081;28;20047;-90
2021/12/01 05:01:57;;;;;;;1.38;0.40;;;12.20;87.40;;;;;;4981148;28;20027;-90
2021/12/01 05:04:23;;;;;;;1.05;0.20;;;12.20;87.50;;;;;;4966528;28;20148;-94
2021/12/01 05:06:49;;;;;;;1.17;0.35;;;11.70;87.80;;;;;;4968540;28;20049;-93
2021/12/01 05:09:15;;;;;;;1.83;0.30;;;12.00;88.00;;;;;;4942937;28;20070;-90
2021/12/01 05:11:41;;;;;;;2.28;0.22;;;11.80;87.30;;;;;;4965271;28;20122;-93
2021/12/01 05:14:07;;;;;;;0.03;0.03;;;11.90;87.50;;;;;;4943038;28;20181;-93
2021/12/01 05:16:36;;;;;;;0.25;0.13;;;11.70;87.40;;;;;;4948692;28;20126;-93
2021/12/01 05:19:05;;;;;;;0.30;0.10;;;11.60;87.40;;;;;;4963130;28;20058;-92
2021/12/01 05:21:32;;;;;;;2.97;0.20;;;11.60;87.30;;;;;;4958857;28;20039;-89
2021/12/01 05:23:57;;;;;;;0.10;0.10;;;11.70;87.50;;;;;;4927390;28;20043;-93
2021/12/01 05:26:23;;;;;;;0.10;0.10;;;11.70;87.50;;;;;;4962022;28;20129;-92
2021/12/01 05:28:49;;;;;;;0.10;0.10;;;11.70;87.40;;;;;;4955189;28;20042;-91
2021/12/01 05:31:15;;;;;;;0.45;0.30;;;11.80;87.60;;;;;;4969889;28;20089;-92
2021/12/01 05:33:41;;;;;;;0.45;0.30;;;11.60;87.50;;;;;;4928335;28;20412;-92
2021/12/01 05:36:08;;;;;;;0.35;0.13;;;11.60;87.60;;;;;;4973395;28;20381;-93
2021/12/01 05:38:34;;;;;;;0.15;0.00;;;11.70;87.60;;;;;;4918878;29;20047;-89
2021/12/01 05:41:02;;;;;;;0.38;0.15;;;11.70;87.60;;;;;;4967419;28;20054;-93
2021/12/01 05:43:28;;;;;;;0.10;0.10;;;11.90;87.70;;;;;;4956390;28;20098;-93
2021/12/01 05:45:54;;;;;;;0.50;0.10;;;11.70;88.20;;;;;;4964082;28;20039;-93
2021/12/01 05:48:20;;;;;;;0.30;0.10;;;11.70;87.50;;;;;;4954034;28;20093;-90
2021/12/01 05:50:46;;;;;;;0.32;0.20;;;11.70;87.60;;;;;;4977588;28;20031;-93
2021/12/01 05:53:13;;;;;;;1.27;0.40;;;11.70;87.60;;;;;;4962428;28;20031;-93
2021/12/01 05:55:40;;;;;;;1.17;0.43;;;11.70;87.70;;;;;;4953791;28;20027;-93
2021/12/01 05:58:06;;;;;;;0.20;0.10;;;11.70;87.70;;;;;;4968085;28;20559;-92
2021/12/01 06:00:31;;;;;;;0.15;0.05;;;11.70;87.70;;;;;;4950635;28;20030;-96
2021/12/01 06:02:57;;;;;;;0.68;0.32;;;12.00;88.00;;;;;;4963316;28;20027;-94
2021/12/01 06:05:23;;;;;;;0.40;0.25;;;11.70;87.80;;;;;;4941265;28;20424;-95
2021/12/01 06:07:50;;;;;;;2.55;0.52;;;11.80;87.90;;;;;;4951477;28;20132;-93
2021/12/01 06:10:17;;;;;;;1.42;0.30;;;12.00;88.00;;;;;;4947074;28;20038;-91
2021/12/01 06:12:45;;;;;;;2.15;0.82;;;11.70;87.90;;;;;;4945856;28;20089;-94
2021/12/01 06:15:13;;;;;;;1.83;0.70;;;11.70;87.90;;;;;;4956496;28;20061;-93
2021/12/01 06:17:40;;;;;;;1.75;0.75;;;11.70;87.90;;;;;;4942102;28;20031;-92
2021/12/01 06:20:09;;;;;;;3.20;1.10;;;11.70;87.90;;;;;;4956591;28;20074;-93
2021/12/01 06:22:35;;;;;;;2.03;0.38;;;11.70;87.90;;;;;;4951797;28;20050;-91
2021/12/01 06:25:02;;;;;;;3.15;1.08;;;11.70;87.90;;;;;;4948714;28;20041;-91
2021/12/01 06:27:28;;;;;;;3.25;0.88;;;11.80;88.50;;;;;;4945268;28;20038;-93
2021/12/01 06:29:54;;;;;;;0.90;0.47;;;11.80;88.00;;;;;;4958391;28;20039;-94
2021/12/01 06:32:21;;;;;;;0.63;0.43;;;12.00;88.10;;;;;;4941130;28;20906;-93
2021/12/01 06:34:47;;;;;;;0.55;0.30;;;12.00;88.00;;;;;;4942246;28;20046;-91
2021/12/01 06:37:13;;;;;;;0.65;0.28;;;11.80;87.90;;;;;;4944825;28;20038;-92
2021/12/01 06:39:39;;;;;;;0.65;0.20;;;12.00;88.10;;;;;;4930390;28;20050;-91
2021/12/01 06:42:05;;;;;;;0.13;0.10;;;11.80;88.00;;;;;;4949410;28;20039;-91
2021/12/01 06:44:31;;;;;;;0.32;0.20;;;11.80;88.70;;;;;;4959373;28;20050;-91
2021/12/01 06:46:58;;;;;;;0.47;0.15;;;12.00;88.20;;;;;;4944818;28;20038;-91
2021/12/01 06:49:23;;;;;;;0.77;0.35;;;11.70;88.10;;;;;;4958901;28;20040;-91
2021/12/01 06:51:49;;;;;;;0.85;0.30;;;11.70;88.20;;;;;;4972571;28;20038;-89
2021/12/01 06:54:15;;;;;;;0.28;0.10;;;11.70;88.20;;;;;;4958804;28;20027;-91
2021/12/01 06:56:41;;;;;;;1.95;0.20;;;11.70;88.20;;;;;;4944525;28;20465;-91
2021/12/01 06:59:06;;;;;;;0.25;0.17;;;11.70;88.20;;;;;;4973635;28;20064;-89
2021/12/01 07:01:32;;;;;;;0.00;0.00;;;11.80;88.40;;;;;;4943583;28;20035;-92
2021/12/01 07:03:58;;;;;;;0.30;0.20;;;12.20;88.60;;;;;;4965298;28;20719;-91
2021/12/01 07:06:24;;;;;;;1.38;0.30;;;11.60;88.40;;;;;;4948267;28;20042;-90
2021/12/01 07:08:49;;;;;;;0.10;0.00;;;11.60;88.40;;;;;;4979285;28;20051;-92
2021/12/01 07:11:15;;;;;;;0.35;0.20;;;11.90;88.50;;;;;;4965022;28;20031;-91
2021/12/01 07:13:41;;;;;;;0.30;0.10;;;11.70;88.50;;;;;;4973838;28;20268;-92
2021/12/01 07:16:07;;;;;;;0.10;0.10;;;11.60;88.40;;;;;;4960786;28;20043;-90
2021/12/01 07:18:33;;;;;;;0.20;0.10;;;11.70;88.50;;;;;;4959497;28;20035;-91
2021/12/01 07:20:59;;;;;;;2.03;0.35;;;11.70;88.40;;;;;;4958047;28;20062;-91
2021/12/01 07:23:25;;;;;;;2.17;0.38;;;11.70;88.50;;;;;;4958452;28;20030;-90
2021/12/01 07:25:51;;;;;;;0.10;0.10;;;11.70;88.50;;;;;;4960214;28;20079;-90
2021/12/01 07:28:17;;;;;;;0.57;0.20;;;11.70;88.60;;;;;;4946958;28;20027;-91
2021/12/01 07:30:43;;;;;;;0.30;0.20;;;11.70;88.60;;;;;;4960452;28;20053;-93
2021/12/01 07:33:09;;;;;;;0.35;0.20;;;11.70;88.60;;;;;;4946530;28;20067;-95
2021/12/01 07:35:35;;;;;;;0.30;0.10;;;11.70;88.60;;;;;;4961361;28;20062;-95
2021/12/01 07:38:00;;;;;;;0.52;0.30;;;11.70;88.60;;;;;;4952326;28;20022;-92
2021/12/01 07:40:26;;;;;;;0.57;0.32;;;11.70;88.60;;;;;;4941118;28;20105;-94
2021/12/01 07:42:52;;;;;;;0.35;0.30;;;11.90;88.70;;;;;;4959206;28;20015;-91
2021/12/01 07:45:18;;;;;;;0.50;0.32;;;12.00;88.80;;;;;;4959558;28;20454;-94
2021/12/01 07:47:44;;;;;;;0.43;0.15;;;11.70;88.70;;;;;;4957897;28;20023;-94
2021/12/01 07:50:11;;;;;;;0.57;0.30;;;11.70;88.60;;;;;;4943857;29;20039;-94
2021/12/01 07:52:39;;;;;;;0.40;0.25;;;12.00;88.80;;;;;;4963659;28;20027;-93
2021/12/01 07:55:05;;;;;;;0.65;0.20;;;12.00;88.90;;;;;;4962125;28;20039;-92
2021/12/01 07:57:31;;;;;;;0.25;0.10;;;11.70;88.70;;;;;;4962413;28;20023;-94
2021/12/01 07:59:57;;;;;;;0.45;0.30;;;11.70;88.80;;;;;;4940618;28;20043;-92
2021/12/01 08:02:23;;;;;;;0.68;0.28;;;11.70;88.80;;;;;;4951418;28;20037;-93
2021/12/01 08:04:48;;;;;;;0.68;0.20;;;12.10;89.00;;;;;;4949851;28;20050;-93
2021/12/01 08:07:14;;;;;;;0.98;0.40;;;11.70;88.80;;;;;;4959257;28;20030;-95
2021/12/01 08:09:40;;;;;;;0.75;0.38;;;11.80;88.80;;;;;;4944060;28;20027;-90
2021/12/01 08:12:10;;;;;;;1.45;0.57;;;11.70;88.80;;;;;;4948123;28;20430;-94
2021/12/01 08:14:37;;;;;;;1.40;0.68;;;11.80;88.80;;;;;;4971647;28;20097;-94
2021/12/01 08:17:03;;;;;;;1.85;0.50;;;11.80;88.80;;;;;;4945591;28;20137;-94
2021/12/01 08:19:29;;;;;;;1.77;0.70;;;11.80;88.80;;;;;;4948345;28;20097;-93
2021/12/01 08:21:55;;;;;;;1.23;0.60;;;11.80;88.80;;;;;;4946405;28;20035;-94
2021/12/01 08:24:21;;;;;;;4.10;1.50;;;11.80;88.90;;;;;;4947676;28;20122;-95
2021/12/01 08:26:48;;;;;;;7.28;4.03;;;11.80;89.30;;;;;;4945548;28;20034;-94
2021/12/01 08:29:15;;;;;;;4.88;2.42;;;11.80;88.70;;;;;;4954215;28;20150;-94
2021/12/01 08:31:41;;;;;;;3.33;1.88;;;12.00;88.80;;;;;;4971182;28;20058;-92
2021/12/01 08:34:07;;;;;;;3.05;1.70;;;11.80;88.70;;;;;;4942454;28;20035;-95
2021/12/01 08:36:33;;;;;;;3.47;1.60;;;11.90;88.70;;;;;;4967787;28;20126;-94
2021/12/01 08:38:58;;;;;;;3.15;1.52;;;11.90;88.70;;;;;;4965672;28;20138;-91
2021/12/01 08:41:24;;;;;;;3.17;0.95;;;11.90;88.80;;;;;;4930189;28;20617;-95
2021/12/01 08:43:50;;;;;;;1.70;1.00;;;11.90;88.70;;;;;;4935088;28;20031;-94
2021/12/01 08:46:16;;;;;;;2.78;1.17;;;11.90;88.70;;;;;;4951602;28;20508;-94
2021/12/01 08:48:42;;;;;;;4.93;1.60;;;11.90;88.70;;;;;;4962097;28;20465;-94
2021/12/01 08:51:08;;;;;;;1.90;0.75;;;12.20;88.80;;;;;;4942777;28;20035;-94
2021/12/01 08:53:40;;;;;;;2.17;1.23;;;12.20;88.80;;;;;;4948830;28;20042;-94
2021/12/01 08:56:06;;;;;;;4.63;1.45;;;11.90;88.50;;;;;;4924811;28;20043;-94
2021/12/01 08:58:32;;;;;;;0.82;0.25;;;11.90;88.50;;;;;;4922387;28;20089;-94
2021/12/01 09:00:58;;;;;;;2.15;0.85;;;12.10;88.60;;;;;;4944384;28;20059;-95
2021/12/01 09:03:25;;;;;;;1.55;0.85;;;11.90;88.50;;;;;;4927108;29;20135;-94
2021/12/01 09:05:52;;;;;;;2.85;0.50;;;11.90;88.60;;;;;;4921323;28;20035;-96
2021/12/01 09:08:21;;;;;;;2.60;0.80;;;11.90;88.60;;;;;;4946952;28;20035;-96
2021/12/01 09:10:52;;;;;;;1.83;0.63;;;12.00;88.60;;;;;;4955219;28;20118;-94
2021/12/01 09:13:18;;;;;;;2.88;1.33;;;11.90;88.60;;;;;;4928414;29;20038;-95
2021/12/01 09:15:44;;;;;;;4.15;1.00;;;11.90;88.60;;;;;;4933183;28;20035;-96
2021/12/01 09:18:10;;;;;;;4.72;1.23;;;11.90;88.60;;;;;;4951934;28;20083;-94
2021/12/01 09:20:36;;;;;;;6.22;0.88;;;11.90;88.60;;;;;;4966587;28;20044;-95
2021/12/01 09:23:03;;;;;;;3.10;0.88;;;11.90;88.60;;;;;;4944295;28;20102;-92
2021/12/01 09:25:30;;;;;;;4.72;1.00;;;11.90;88.60;;;;;;4935304;28;20510;-94
2021/12/01 09:27:56;;;;;;;11.27;1.67;;;11.90;89.20;;;;;;4948687;28;20027;-96
2021/12/01 09:30:22;;;;;;;2.80;0.65;;;11.90;88.60;;;;;;4958857;28;20039;-94
2021/12/01 09:32:48;;;;;;;4.40;1.10;;;11.90;88.60;;;;;;4930309;29;20583;-92
2021/12/01 09:35:15;;;;;;;2.47;0.80;;;11.80;88.50;;;;;;4928261;28;20054;-95
2021/12/01 09:37:41;;;;;;;3.22;0.90;;;11.90;88.50;;;;;;4939345;29;20495;-92
2021/12/01 09:40:17;;;;;;;5.72;0.98;;;11.90;88.40;;;;;;4937403;28;20027;-93
2021/12/01 09:42:49;;;;;;;2.03;0.70;;;11.90;88.40;;;;;;4943512;28;20030;-96
2021/12/01 09:45:20;;;;;;;2.97;0.60;;;11.90;88.20;;;;;;4959153;28;20113;-96
2021/12/01 09:47:47;;;;;;;2.42;0.63;;;11.90;88.20;;;;;;4943919;28;20023;-96
2021/12/01 09:50:14;;;;;;;7.18;1.25;;;11.90;88.20;;;;;;4954605;28;20554;-95
2021/12/01 09:52:40;;;;;;;3.88;0.65;;;11.90;87.90;;;;;;4960331;28;20138;-96
2021/12/01 09:55:07;;;;;;;2.67;0.88;;;11.90;88.00;;;;;;4961568;28;20046;-96
2021/12/01 09:57:33;;;;;;;1.42;0.70;;;11.90;87.90;;;;;;4947654;28;20160;-96
2021/12/01 09:59:59;;;;;;;7.90;0.95;;;11.90;87.80;;;;;;4965295;28;20149;-96
2021/12/01 10:02:25;;;;;;;2.70;0.98;;;11.90;87.60;;;;;;4957269;28;20031;-96
2021/12/01 10:04:54;;;;;;;2.88;0.80;;;11.90;87.60;;;;;;4960903;28;20066;-96
2021/12/01 10:07:26;;;;;;;6.93;1.42;;;11.90;87.40;;;;;;4937326;28;20039;-94
2021/12/01 10:09:57;;;;;;;2.17;0.47;;;12.00;87.20;;;;;;4948304;28;20034;-95
2021/12/01 10:12:24;;;;;;;4.60;1.08;;;12.00;87.10;;;;;;4948169;28;20561;-96
2021/12/01 10:14:52;;;;;;;1.58;0.63;;;11.90;86.90;;;;;;4940858;28;20034;-96
2021/12/01 10:17:35;;;;;;;3.88;0.75;;;12.30;87.10;;;;;;4959234;28;20034;-96
2021/12/01 10:20:18;;;;;;;6.05;0.70;;;12.00;86.70;;;;;;4947250;28;20512;-94
2021/12/01 10:23:13;;;;;;;3.70;0.82;;;12.00;86.60;;;;;;4950448;28;20085;-96
2021/12/01 10:25:40;;;;;;;3.28;0.80;;;12.00;86.50;;;;;;4967545;28;20504;-95
2021/12/01 10:28:07;;;;;;;4.78;0.75;;;12.00;86.40;;;;;;4944565;28;20039;-96
2021/12/01 10:30:45;;;;;;;3.95;0.57;;;12.00;86.30;;;;;;4943710;28;20030;-94
2021/12/01 10:33:16;;;;;;;3.92;1.15;;;12.00;86.20;;;;;;4952150;28;20512;-96
2021/12/01 10:35:43;;;;;;;4.97;1.23;;;12.00;86.10;;;;;;4951506;28;20034;-96
2021/12/01 10:38:13;;;;;;;2.97;0.68;;;12.00;86.00;;;;;;4968103;28;20554;-93
2021/12/01 10:40:39;;;;;;;3.90;0.70;;;12.00;85.90;;;;;;4963401;28;20030;-96
2021/12/01 10:43:11;;;;;;;2.95;0.65;;;12.30;85.90;;;;;;4949279;28;20019;-96
2021/12/01 10:45:46;;;;;;;3.95;0.90;;;12.00;85.60;;;;;;4957221;28;20038;-96
2021/12/01 10:48:21;;;;;;;;;;;12.20;86.20;;;;;;4944913;28;20054;-96
2021/12/01 10:50:46;;;;;;;4.13;0.88;;;12.00;85.50;;;;;;4941818;28;19982;-94
2021/12/01 10:53:18;;;;;;;3.83;1.10;;;12.00;85.40;;;;;;4925790;29;20070;-96
2021/12/01 10:55:51;;;;;;;3.90;0.93;;;12.00;85.10;;;;;;4940881;28;20034;-96
2021/12/01 10:58:18;;;;;;;4.20;1.23;;;12.00;84.90;;;;;;4969184;28;20121;-96
2021/12/01 11:00:48;;;;;;;4.00;0.73;;;12.00;84.80;;;;;;4966396;28;20030;-94
2021/12/01 11:03:17;;;;;;;6.13;0.80;;;12.50;85.10;;;;;;4959140;28;20086;-94
2021/12/01 11:05:49;;;;;;;4.10;1.08;;;11.90;84.80;;;;;;4964726;28;20453;-96
2021/12/01 11:08:26;;;;;;;2.65;0.93;;;12.00;84.90;;;;;;4975017;28;20031;-96
2021/12/01 11:10:56;;;;;;;2.28;1.15;;;11.90;84.80;;;;;;4964371;28;20035;-96
2021/12/01 11:13:23;;;;;;;2.90;0.70;;;12.00;84.80;;;;;;4971239;28;20058;-95
2021/12/01 11:15:58;;;;;;;2.78;0.70;;;12.00;84.70;;;;;;4945243;28;20035;-95
2021/12/01 11:18:29;;;;;;;3.58;0.73;;;12.00;84.60;;;;;;4958166;28;20038;-96
2021/12/01 11:21:01;;;;;;;3.30;0.80;;;12.00;84.60;;;;;;4951089;28;20058;-93
2021/12/01 11:23:31;;;;;;;3.53;0.90;;;12.40;84.80;;;;;;4967701;28;20031;-94
2021/12/01 11:26:04;;;;;;;3.28;0.90;;;12.10;84.70;;;;;;4971736;28;20037;-94
2021/12/01 11:28:32;;;;;;;3.75;0.77;;;12.20;84.70;;;;;;4972124;28;20019;-90
2021/12/01 11:31:05;;;;;;;3.70;0.88;;;12.00;84.60;;;;;;4973114;28;20015;-91
2021/12/01 11:33:31;;;;;;;3.47;1.00;;;12.00;84.60;;;;;;4994288;28;20031;-90
2021/12/01 11:36:04;;;;;;;2.72;0.68;;;12.00;84.60;;;;;;4973933;28;20035;-93
2021/12/01 11:38:30;;;;;;;3.97;1.17;;;12.00;84.70;;;;;;4955719;28;20041;-94
2021/12/01 11:40:56;;;;;;;4.57;0.93;;;12.40;84.90;;;;;;4947740;28;20122;-95
2021/12/01 11:43:26;;;;;;;2.95;0.63;;;12.20;84.90;;;;;;4951393;28;20600;-94
2021/12/01 11:45:53;;;;;;;3.72;1.10;;;12.00;84.80;;;;;;4950398;28;20038;-91
2021/12/01 11:48:29;;;;;;;3.10;0.73;;;12.10;84.90;;;;;;4959285;28;20555;-91
2021/12/01 11:51:29;;;;;;;1.15;0.47;;;12.10;84.80;;;;;;4953298;28;20465;-95
2021/12/01 11:54:15;;;;;;;6.82;0.95;;;12.10;84.60;;;;;;4966460;28;20109;-95
2021/12/01 11:57:01;;;;;;;3.03;1.55;;;12.10;84.30;;;;;;4960064;28;20038;-96
2021/12/01 11:59:44;;;;;;;3.10;1.00;;;12.10;84.30;;;;;;4961800;28;20081;-94
2021/12/01 12:02:16;;;;;;;18.63;5.07;;;12.30;84.40;;;;;;4965101;28;20130;-95
2021/12/01 12:04:44;;;;;;;3.88;1.48;;;12.20;84.40;;;;;;4983185;28;20523;-95
2021/12/01 12:07:20;;;;;;;2.75;0.73;;;12.00;84.00;;;;;;4974812;28;20042;-94
2021/12/01 12:10:16;;;;;;;2.05;0.95;;;12.00;83.90;;;;;;4966830;28;20027;-91
2021/12/01 12:13:15;;;;;;;5.65;1.15;;;12.00;83.70;;;;;;4966282;28;20043;-95
2021/12/01 12:15:48;;;;;;;2.25;0.93;;;12.00;83.70;;;;;;4984600;28;20034;-95
2021/12/01 12:18:34;;;;;;;6.05;1.13;;;12.00;83.60;;;;;;4952512;28;20042;-95
2021/12/01 12:21:34;;;;;;;4.80;1.77;;;12.20;83.60;;;;;;4965938;28;20039;-90
2021/12/01 12:24:12;;;;;;;7.03;1.83;;;12.00;83.50;;;;;;4964580;28;20018;-91
2021/12/01 12:26:43;;;;;;;3.10;1.25;;;12.00;83.50;;;;;;4950663;28;20066;-96
2021/12/01 12:29:18;;;;;;;6.35;1.77;;;12.00;83.40;;;;;;4965489;28;20551;-91
2021/12/01 12:31:48;;;;;;;2.53;0.95;;;12.00;83.40;;;;;;4967466;28;20046;-95
2021/12/01 12:34:21;;;;;;;1.95;1.10;;;12.00;83.40;;;;;;4966146;28;20042;-95
2021/12/01 12:36:50;;;;;;;3.53;1.00;;;12.00;83.30;;;;;;4956979;28;20394;-93
2021/12/01 12:39:28;;;;;;;3.10;0.90;;;12.00;83.30;;;;;;4961256;28;20500;-92
2021/12/01 12:42:08;;;;;;;3.38;0.85;;;12.10;83.30;;;;;;4967528;28;20053;-96
2021/12/01 12:44:45;;;;;;;4.15;1.08;;;12.00;83.20;;;;;;4970358;28;20034;-94
2021/12/01 12:47:14;;;;;;;6.82;1.85;;;12.10;83.20;;;;;;4959828;28;20038;-94
2021/12/01 12:49:41;;;;;;;2.40;0.82;;;12.00;83.10;;;;;;4956382;28;20174;-93
2021/12/01 12:52:25;;;;;;;5.47;1.02;;;12.00;83.00;;;;;;4973264;28;20776;-96
2021/12/01 12:55:09;;;;;;;1.52;0.57;;;12.00;83.00;;;;;;4987305;28;20030;-96
2021/12/01 12:57:58;;;;;;;3.38;0.95;;;12.00;83.00;;;;;;4967221;28;20042;-94
2021/12/01 13:00:53;;;;;;;2.60;0.90;;;12.00;83.00;;;;;;4981409;28;20067;-95
2021/12/01 13:03:28;;;;;;;1.73;0.45;;;11.90;83.00;;;;;;4938879;28;20034;-96